Yates, Illinois
Current Conditions -  °F | °C
As of 4:35 AM on Monday 20 Oct 2014 (Local Time) from KPNT Reporting Station
Clear Clear  
Wind Chill: 52°   Ceiling: Unl
Heat Index: 52°   Visibility: 10mi
Dew Point: 46°   Wind: 7mph
Humidity: 82%   Direction: 230°SW
Pressure: 29.87"   Gusts: NA
Location:  40.7409°N, 88.7189°W
Report Text: KPNT 200935Z AUTO 23006KT 10SM CLR 11/08 A2987 RMK AO2
Loading
Personal Weather Stations






























Interactive Weather Map New forecast layout! Learn more

10-Day Weather Forecast

Advertisements
Track Severe Weather on mobile